sensor_id;sensor_type;location;lat;lon;timestamp;temperature;humidity
14779;DHT22;7481;53.750;10.570;2022-11-20T00:01:22;2.70;99.90
14779;DHT22;7481;53.750;10.570;2022-11-20T00:04:10;2.70;99.90
14779;DHT22;7481;53.750;10.570;2022-11-20T00:06:58;2.70;99.90
14779;DHT22;7481;53.750;10.570;2022-11-20T00:09:45;2.70;99.90
14779;DHT22;7481;53.750;10.570;2022-11-20T00:12:32;2.70;99.90
14779;DHT22;7481;53.750;10.570;2022-11-20T00:15:19;2.70;99.90
14779;DHT22;7481;53.750;10.570;2022-11-20T00:18:06;2.60;99.90
14779;DHT22;7481;53.750;10.570;2022-11-20T00:20:53;2.60;99.90
14779;DHT22;7481;53.750;10.570;2022-11-20T00:23:41;2.60;99.90
14779;DHT22;7481;53.750;10.570;2022-11-20T00:26:28;2.60;99.90
14779;DHT22;7481;53.750;10.570;2022-11-20T00:29:15;2.60;99.90
14779;DHT22;7481;53.750;10.570;2022-11-20T00:32:02;2.70;99.90
14779;DHT22;7481;53.750;10.570;2022-11-20T00:34:49;2.60;99.90
14779;DHT22;7481;53.750;10.570;2022-11-20T00:37:36;2.70;99.90
14779;DHT22;7481;53.750;10.570;2022-11-20T00:40:23;2.60;99.90
14779;DHT22;7481;53.750;10.570;2022-11-20T00:43:11;2.70;99.90
14779;DHT22;7481;53.750;10.570;2022-11-20T00:46:06;5.00;99.90
14779;DHT22;7481;53.750;10.570;2022-11-20T00:48:54;2.70;99.90
14779;DHT22;7481;53.750;10.570;2022-11-20T00:51:41;2.70;99.90
14779;DHT22;7481;53.750;10.570;2022-11-20T00:54:28;2.70;99.90
14779;DHT22;7481;53.750;10.570;2022-11-20T00:57:15;2.70;99.90
14779;DHT22;7481;53.750;10.570;2022-11-20T01:00:02;2.60;99.90
14779;DHT22;7481;53.750;10.570;2022-11-20T01:02:49;2.60;99.90
14779;DHT22;7481;53.750;10.570;2022-11-20T01:05:36;2.50;99.90
14779;DHT22;7481;53.750;10.570;2022-11-20T01:08:23;2.50;99.90
14779;DHT22;7481;53.750;10.570;2022-11-20T01:11:16;2.50;99.90
14779;DHT22;7481;53.750;10.570;2022-11-20T01:14:06;2.50;99.90
14779;DHT22;7481;53.750;10.570;2022-11-20T01:16:54;2.50;99.90
14779;DHT22;7481;53.750;10.570;2022-11-20T01:19:41;2.50;99.90
14779;DHT22;7481;53.750;10.570;2022-11-20T01:22:27;2.50;99.90
14779;DHT22;7481;53.750;10.570;2022-11-20T01:25:14;2.50;99.90
14779;DHT22;7481;53.750;10.570;2022-11-20T01:28:01;2.50;99.90
14779;DHT22;7481;53.750;10.570;2022-11-20T01:30:48;2.50;99.90
14779;DHT22;7481;53.750;10.570;2022-11-20T01:33:35;2.50;99.90
14779;DHT22;7481;53.750;10.570;2022-11-20T01:36:25;2.50;99.90
14779;DHT22;7481;53.750;10.570;2022-11-20T01:39:17;2.40;99.90
14779;DHT22;7481;53.750;10.570;2022-11-20T01:42:05;2.40;99.90
14779;DHT22;7481;53.750;10.570;2022-11-20T01:49:08;2.40;99.90
14779;DHT22;7481;53.750;10.570;2022-11-20T01:52:01;2.40;99.90
14779;DHT22;7481;53.750;10.570;2022-11-20T01:54:56;2.40;99.90
14779;DHT22;7481;53.750;10.570;2022-11-20T01:57:47;2.40;99.90
14779;DHT22;7481;53.750;10.570;2022-11-20T02:00:35;2.30;99.90
14779;DHT22;7481;53.750;10.570;2022-11-20T02:03:22;2.30;99.90
14779;DHT22;7481;53.750;10.570;2022-11-20T02:06:26;2.40;99.90
14779;DHT22;7481;53.750;10.570;2022-11-20T02:09:14;2.40;99.90
14779;DHT22;7481;53.750;10.570;2022-11-20T02:12:03;2.40;99.90
14779;DHT22;7481;53.750;10.570;2022-11-20T02:14:50;2.30;99.90
14779;DHT22;7481;53.750;10.570;2022-11-20T02:17:37;2.40;99.90
14779;DHT22;7481;53.750;10.570;2022-11-20T02:20:25;2.40;99.90
14779;DHT22;7481;53.750;10.570;2022-11-20T02:23:22;2.40;99.90
14779;DHT22;7481;53.750;10.570;2022-11-20T02:26:13;2.40;99.90
14779;DHT22;7481;53.750;10.570;2022-11-20T02:29:02;2.30;99.90
14779;DHT22;7481;53.750;10.570;2022-11-20T02:31:50;2.30;99.90
14779;DHT22;7481;53.750;10.570;2022-11-20T02:34:38;2.30;99.90
14779;DHT22;7481;53.750;10.570;2022-11-20T02:37:33;2.30;99.90
14779;DHT22;7481;53.750;10.570;2022-11-20T02:40:21;2.40;99.90
14779;DHT22;7481;53.750;10.570;2022-11-20T02:43:09;2.40;99.90
14779;DHT22;7481;53.750;10.570;2022-11-20T02:45:56;2.40;99.90
14779;DHT22;7481;53.750;10.570;2022-11-20T02:48:43;2.40;99.90
14779;DHT22;7481;53.750;10.570;2022-11-20T02:51:31;2.40;99.90
14779;DHT22;7481;53.750;10.570;2022-11-20T02:54:18;2.40;99.90
14779;DHT22;7481;53.750;10.570;2022-11-20T02:57:05;2.40;99.90
14779;DHT22;7481;53.750;10.570;2022-11-20T02:59:52;2.40;99.90
14779;DHT22;7481;53.750;10.570;2022-11-20T03:02:39;2.40;99.90
14779;DHT22;7481;53.750;10.570;2022-11-20T03:05:26;2.40;99.90
14779;DHT22;7481;53.750;10.570;2022-11-20T03:08:13;2.40;99.90
14779;DHT22;7481;53.750;10.570;2022-11-20T03:11:05;2.40;99.90
14779;DHT22;7481;53.750;10.570;2022-11-20T03:13:52;2.40;99.90
14779;DHT22;7481;53.750;10.570;2022-11-20T03:16:39;2.40;99.90
14779;DHT22;7481;53.750;10.570;2022-11-20T03:19:26;2.40;99.90
14779;DHT22;7481;53.750;10.570;2022-11-20T03:22:13;2.30;99.90
14779;DHT22;7481;53.750;10.570;2022-11-20T03:25:00;2.30;99.90
14779;DHT22;7481;53.750;10.570;2022-11-20T03:27:47;2.30;99.90
14779;DHT22;7481;53.750;10.570;2022-11-20T03:30:34;2.30;99.90
14779;DHT22;7481;53.750;10.570;2022-11-20T03:33:21;2.30;99.90
14779;DHT22;7481;53.750;10.570;2022-11-20T03:36:11;2.40;99.90
14779;DHT22;7481;53.750;10.570;2022-11-20T03:38:59;2.40;99.90
14779;DHT22;7481;53.750;10.570;2022-11-20T03:41:46;2.40;99.90
14779;DHT22;7481;53.750;10.570;2022-11-20T03:44:33;2.40;99.90
14779;DHT22;7481;53.750;10.570;2022-11-20T03:47:20;2.40;99.90
14779;DHT22;7481;53.750;10.570;2022-11-20T03:50:08;2.40;99.90
14779;DHT22;7481;53.750;10.570;2022-11-20T03:52:55;2.40;99.90
14779;DHT22;7481;53.750;10.570;2022-11-20T03:55:42;2.40;99.90
14779;DHT22;7481;53.750;10.570;2022-11-20T03:58:29;2.40;99.90
14779;DHT22;7481;53.750;10.570;2022-11-20T04:01:34;2.40;99.90
14779;DHT22;7481;53.750;10.570;2022-11-20T04:04:21;2.40;99.90
14779;DHT22;7481;53.750;10.570;2022-11-20T04:07:08;2.40;99.90
14779;DHT22;7481;53.750;10.570;2022-11-20T04:09:55;2.40;99.90
14779;DHT22;7481;53.750;10.570;2022-11-20T04:12:42;2.40;99.90
14779;DHT22;7481;53.750;10.570;2022-11-20T04:15:29;2.40;99.90
14779;DHT22;7481;53.750;10.570;2022-11-20T04:18:22;2.40;99.90
14779;DHT22;7481;53.750;10.570;2022-11-20T04:21:10;2.40;99.90
14779;DHT22;7481;53.750;10.570;2022-11-20T04:23:57;2.50;99.90
14779;DHT22;7481;53.750;10.570;2022-11-20T04:26:45;2.40;99.90
14779;DHT22;7481;53.750;10.570;2022-11-20T04:29:31;2.40;99.90
14779;DHT22;7481;53.750;10.570;2022-11-20T04:32:18;2.40;99.90
14779;DHT22;7481;53.750;10.570;2022-11-20T04:35:05;2.40;99.90
14779;DHT22;7481;53.750;10.570;2022-11-20T04:37:52;2.50;99.90
14779;DHT22;7481;53.750;10.570;2022-11-20T04:40:39;2.40;99.90
14779;DHT22;7481;53.750;10.570;2022-11-20T04:43:26;2.40;99.90
14779;DHT22;7481;53.750;10.570;2022-11-20T04:46:14;2.40;99.90
14779;DHT22;7481;53.750;10.570;2022-11-20T04:49:01;2.30;99.90
14779;DHT22;7481;53.750;10.570;2022-11-20T04:51:47;2.40;99.90
14779;DHT22;7481;53.750;10.570;2022-11-20T04:54:34;2.40;99.90
14779;DHT22;7481;53.750;10.570;2022-11-20T04:57:21;2.40;99.90
14779;DHT22;7481;53.750;10.570;2022-11-20T05:00:09;2.30;99.90
14779;DHT22;7481;53.750;10.570;2022-11-20T05:02:56;2.30;99.90
14779;DHT22;7481;53.750;10.570;2022-11-20T05:05:43;2.30;99.90
14779;DHT22;7481;53.750;10.570;2022-11-20T05:08:31;2.30;99.90
14779;DHT22;7481;53.750;10.570;2022-11-20T05:11:20;2.30;99.90
14779;DHT22;7481;53.750;10.570;2022-11-20T05:14:07;2.30;99.90
14779;DHT22;7481;53.750;10.570;2022-11-20T05:16:54;3.60;99.90
14779;DHT22;7481;53.750;10.570;2022-11-20T05:19:41;2.30;99.90
14779;DHT22;7481;53.750;10.570;2022-11-20T05:22:28;2.30;99.90
14779;DHT22;7481;53.750;10.570;2022-11-20T05:25:15;2.30;99.90
14779;DHT22;7481;53.750;10.570;2022-11-20T05:28:02;2.30;99.90
14779;DHT22;7481;53.750;10.570;2022-11-20T05:30:49;2.30;99.90
14779;DHT22;7481;53.750;10.570;2022-11-20T05:33:39;2.30;99.90
14779;DHT22;7481;53.750;10.570;2022-11-20T05:36:26;2.30;99.90
14779;DHT22;7481;53.750;10.570;2022-11-20T05:39:13;2.30;99.90
14779;DHT22;7481;53.750;10.570;2022-11-20T05:42:00;2.20;99.90
14779;DHT22;7481;53.750;10.570;2022-11-20T05:45:05;2.30;99.90
14779;DHT22;7481;53.750;10.570;2022-11-20T05:47:53;2.30;99.90
14779;DHT22;7481;53.750;10.570;2022-11-20T05:50:39;2.30;99.90
14779;DHT22;7481;53.750;10.570;2022-11-20T05:53:27;2.30;99.90
14779;DHT22;7481;53.750;10.570;2022-11-20T05:56:16;2.30;99.90
14779;DHT22;7481;53.750;10.570;2022-11-20T05:59:04;2.30;99.90
14779;DHT22;7481;53.750;10.570;2022-11-20T06:01:50;2.30;99.90
14779;DHT22;7481;53.750;10.570;2022-11-20T06:04:37;2.30;99.90
14779;DHT22;7481;53.750;10.570;2022-11-20T06:07:25;2.30;99.90
14779;DHT22;7481;53.750;10.570;2022-11-20T06:10:12;2.30;99.90
14779;DHT22;7481;53.750;10.570;2022-11-20T06:12:59;2.30;99.90
14779;DHT22;7481;53.750;10.570;2022-11-20T06:15:50;2.40;99.90
14779;DHT22;7481;53.750;10.570;2022-11-20T06:18:37;2.40;99.90
14779;DHT22;7481;53.750;10.570;2022-11-20T06:21:24;2.40;99.90
14779;DHT22;7481;53.750;10.570;2022-11-20T06:24:11;2.40;99.90
14779;DHT22;7481;53.750;10.570;2022-11-20T06:26:58;2.40;99.90
14779;DHT22;7481;53.750;10.570;2022-11-20T06:29:45;2.40;99.90
14779;DHT22;7481;53.750;10.570;2022-11-20T06:32:33;2.30;99.90
14779;DHT22;7481;53.750;10.570;2022-11-20T06:35:20;2.40;99.90
14779;DHT22;7481;53.750;10.570;2022-11-20T06:38:07;2.40;99.90
14779;DHT22;7481;53.750;10.570;2022-11-20T06:40:54;2.40;99.90
14779;DHT22;7481;53.750;10.570;2022-11-20T06:43:42;2.40;99.90
14779;DHT22;7481;53.750;10.570;2022-11-20T06:46:29;2.40;99.90
14779;DHT22;7481;53.750;10.570;2022-11-20T06:49:16;2.40;99.90
14779;DHT22;7481;53.750;10.570;2022-11-20T06:52:03;2.40;99.90
14779;DHT22;7481;53.750;10.570;2022-11-20T06:54:50;2.40;99.90
14779;DHT22;7481;53.750;10.570;2022-11-20T06:57:37;2.40;99.90
14779;DHT22;7481;53.750;10.570;2022-11-20T07:00:24;2.50;99.90
14779;DHT22;7481;53.750;10.570;2022-11-20T07:03:12;2.50;99.90
14779;DHT22;7481;53.750;10.570;2022-11-20T07:06:00;2.40;99.90
14779;DHT22;7481;53.750;10.570;2022-11-20T07:08:50;2.40;99.90
14779;DHT22;7481;53.750;10.570;2022-11-20T07:11:38;2.40;99.90
14779;DHT22;7481;53.750;10.570;2022-11-20T07:14:24;2.40;99.90
14779;DHT22;7481;53.750;10.570;2022-11-20T07:17:12;2.50;99.90
14779;DHT22;7481;53.750;10.570;2022-11-20T07:19:59;2.50;99.90
14779;DHT22;7481;53.750;10.570;2022-11-20T07:22:46;2.50;99.90
14779;DHT22;7481;53.750;10.570;2022-11-20T07:25:33;2.50;99.90
14779;DHT22;7481;53.750;10.570;2022-11-20T07:28:20;2.50;99.90
14779;DHT22;7481;53.750;10.570;2022-11-20T07:31:07;2.50;99.90
14779;DHT22;7481;53.750;10.570;2022-11-20T07:33:54;2.50;99.90
14779;DHT22;7481;53.750;10.570;2022-11-20T07:36:41;2.50;99.90
14779;DHT22;7481;53.750;10.570;2022-11-20T07:39:28;2.50;99.90
14779;DHT22;7481;53.750;10.570;2022-11-20T07:42:15;2.40;99.90
14779;DHT22;7481;53.750;10.570;2022-11-20T07:45:02;2.40;99.90
14779;DHT22;7481;53.750;10.570;2022-11-20T07:47:49;2.40;99.90
14779;DHT22;7481;53.750;10.570;2022-11-20T07:50:36;2.50;99.90
14779;DHT22;7481;53.750;10.570;2022-11-20T07:53:24;2.50;99.90
14779;DHT22;7481;53.750;10.570;2022-11-20T07:56:10;2.50;99.90
14779;DHT22;7481;53.750;10.570;2022-11-20T07:58:57;2.50;99.90
14779;DHT22;7481;53.750;10.570;2022-11-20T08:01:44;2.40;99.90
14779;DHT22;7481;53.750;10.570;2022-11-20T08:04:31;2.50;99.90
14779;DHT22;7481;53.750;10.570;2022-11-20T08:07:19;2.50;99.90
14779;DHT22;7481;53.750;10.570;2022-11-20T08:10:08;2.40;99.90
14779;DHT22;7481;53.750;10.570;2022-11-20T08:12:56;2.40;99.90
14779;DHT22;7481;53.750;10.570;2022-11-20T08:16:01;2.40;99.90
14779;DHT22;7481;53.750;10.570;2022-11-20T08:18:48;2.40;99.90
14779;DHT22;7481;53.750;10.570;2022-11-20T08:21:36;2.40;99.90
14779;DHT22;7481;53.750;10.570;2022-11-20T08:24:24;2.40;99.90
14779;DHT22;7481;53.750;10.570;2022-11-20T08:27:13;2.40;99.90
14779;DHT22;7481;53.750;10.570;2022-11-20T08:29:59;2.40;99.90
14779;DHT22;7481;53.750;10.570;2022-11-20T08:32:46;2.40;99.90
14779;DHT22;7481;53.750;10.570;2022-11-20T08:35:35;2.50;99.90
14779;DHT22;7481;53.750;10.570;2022-11-20T08:38:22;2.50;99.90
14779;DHT22;7481;53.750;10.570;2022-11-20T08:41:09;2.50;99.90
14779;DHT22;7481;53.750;10.570;2022-11-20T08:44:12;2.50;99.90
14779;DHT22;7481;53.750;10.570;2022-11-20T08:47:00;2.60;99.90
14779;DHT22;7481;53.750;10.570;2022-11-20T08:49:47;2.50;99.90
14779;DHT22;7481;53.750;10.570;2022-11-20T08:52:34;2.40;99.90
14779;DHT22;7481;53.750;10.570;2022-11-20T08:55:25;2.50;99.90
14779;DHT22;7481;53.750;10.570;2022-11-20T08:58:12;2.50;99.90
14779;DHT22;7481;53.750;10.570;2022-11-20T09:00:59;2.50;99.90
14779;DHT22;7481;53.750;10.570;2022-11-20T09:03:46;2.60;99.90
14779;DHT22;7481;53.750;10.570;2022-11-20T09:06:34;2.60;99.90
14779;DHT22;7481;53.750;10.570;2022-11-20T09:09:21;2.60;99.90
14779;DHT22;7481;53.750;10.570;2022-11-20T09:12:08;2.70;99.90
14779;DHT22;7481;53.750;10.570;2022-11-20T09:14:55;2.90;99.90
14779;DHT22;7481;53.750;10.570;2022-11-20T09:17:42;3.00;99.90
14779;DHT22;7481;53.750;10.570;2022-11-20T09:20:30;3.10;99.90
14779;DHT22;7481;53.750;10.570;2022-11-20T09:23:17;3.10;99.90
14779;DHT22;7481;53.750;10.570;2022-11-20T09:26:06;3.10;99.90
14779;DHT22;7481;53.750;10.570;2022-11-20T09:28:54;3.10;99.90
14779;DHT22;7481;53.750;10.570;2022-11-20T09:31:44;3.10;99.90
14779;DHT22;7481;53.750;10.570;2022-11-20T09:34:31;3.10;99.90
14779;DHT22;7481;53.750;10.570;2022-11-20T09:37:19;3.20;99.90
14779;DHT22;7481;53.750;10.570;2022-11-20T09:40:08;3.20;99.90
14779;DHT22;7481;53.750;10.570;2022-11-20T09:43:40;3.20;99.90
14779;DHT22;7481;53.750;10.570;2022-11-20T09:50:14;3.10;99.90
14779;DHT22;7481;53.750;10.570;2022-11-20T09:56:22;3.10;99.90
14779;DHT22;7481;53.750;10.570;2022-11-20T09:59:40;3.10;99.90
14779;DHT22;7481;53.750;10.570;2022-11-20T10:02:39;3.00;99.90
14779;DHT22;7481;53.750;10.570;2022-11-20T10:05:31;3.00;99.90
14779;DHT22;7481;53.750;10.570;2022-11-20T10:08:39;3.00;99.90
14779;DHT22;7481;53.750;10.570;2022-11-20T10:18:08;3.40;99.90
14779;DHT22;7481;53.750;10.570;2022-11-20T10:21:26;3.40;99.90
14779;DHT22;7481;53.750;10.570;2022-11-20T10:24:41;3.30;99.90
14779;DHT22;7481;53.750;10.570;2022-11-20T10:30:45;5.10;99.90
14779;DHT22;7481;53.750;10.570;2022-11-20T10:33:36;3.50;99.90
14779;DHT22;7481;53.750;10.570;2022-11-20T10:36:55;4.80;99.90
14779;DHT22;7481;53.750;10.570;2022-11-20T10:39:50;5.60;99.90
14779;DHT22;7481;53.750;10.570;2022-11-20T10:42:53;6.90;99.90
14779;DHT22;7481;53.750;10.570;2022-11-20T10:46:01;6.80;99.90
14779;DHT22;7481;53.750;10.570;2022-11-20T10:48:50;6.20;99.90
14779;DHT22;7481;53.750;10.570;2022-11-20T10:51:45;5.50;99.90
14779;DHT22;7481;53.750;10.570;2022-11-20T11:00:44;4.90;99.90
14779;DHT22;7481;53.750;10.570;2022-11-20T11:03:31;4.70;99.90
14779;DHT22;7481;53.750;10.570;2022-11-20T11:06:28;4.50;99.90
14779;DHT22;7481;53.750;10.570;2022-11-20T11:09:30;4.30;99.90
14779;DHT22;7481;53.750;10.570;2022-11-20T11:12:20;4.20;99.90
14779;DHT22;7481;53.750;10.570;2022-11-20T11:15:14;4.30;99.90
14779;DHT22;7481;53.750;10.570;2022-11-20T11:18:02;4.40;99.90
14779;DHT22;7481;53.750;10.570;2022-11-20T11:20:54;4.40;99.90
14779;DHT22;7481;53.750;10.570;2022-11-20T11:23:43;4.40;99.90
14779;DHT22;7481;53.750;10.570;2022-11-20T11:26:30;4.40;99.90
14779;DHT22;7481;53.750;10.570;2022-11-20T11:29:17;4.40;99.90
14779;DHT22;7481;53.750;10.570;2022-11-20T11:32:12;4.40;99.90
14779;DHT22;7481;53.750;10.570;2022-11-20T11:37:48;4.50;99.90
14779;DHT22;7481;53.750;10.570;2022-11-20T11:40:37;4.50;99.90
14779;DHT22;7481;53.750;10.570;2022-11-20T11:43:26;4.50;99.90
14779;DHT22;7481;53.750;10.570;2022-11-20T11:46:35;4.60;99.90
14779;DHT22;7481;53.750;10.570;2022-11-20T11:49:23;4.60;99.90
14779;DHT22;7481;53.750;10.570;2022-11-20T11:52:20;4.50;99.90
14779;DHT22;7481;53.750;10.570;2022-11-20T11:58:43;4.50;99.90
14779;DHT22;7481;53.750;10.570;2022-11-20T12:01:34;4.40;99.90
14779;DHT22;7481;53.750;10.570;2022-11-20T12:04:43;4.40;99.90
14779;DHT22;7481;53.750;10.570;2022-11-20T12:07:35;4.30;99.90
14779;DHT22;7481;53.750;10.570;2022-11-20T12:13:59;4.60;99.90
14779;DHT22;7481;53.750;10.570;2022-11-20T12:16:50;4.50;99.90
14779;DHT22;7481;53.750;10.570;2022-11-20T12:19:40;4.50;99.90
14779;DHT22;7481;53.750;10.570;2022-11-20T12:22:37;4.60;99.90
14779;DHT22;7481;53.750;10.570;2022-11-20T12:25:30;4.70;99.90
14779;DHT22;7481;53.750;10.570;2022-11-20T12:28:32;4.90;99.90
14779;DHT22;7481;53.750;10.570;2022-11-20T12:34:46;5.20;99.90
14779;DHT22;7481;53.750;10.570;2022-11-20T12:44:00;5.10;99.90
14779;DHT22;7481;53.750;10.570;2022-11-20T12:47:19;5.10;99.90
14779;DHT22;7481;53.750;10.570;2022-11-20T13:02:19;4.50;99.90
14779;DHT22;7481;53.750;10.570;2022-11-20T13:05:19;4.60;99.90
14779;DHT22;7481;53.750;10.570;2022-11-20T13:08:18;4.60;99.90
14779;DHT22;7481;53.750;10.570;2022-11-20T13:11:32;4.20;99.90
14779;DHT22;7481;53.750;10.570;2022-11-20T13:14:32;3.90;99.90
14779;DHT22;7481;53.750;10.570;2022-11-20T13:17:36;3.70;99.90
14779;DHT22;7481;53.750;10.570;2022-11-20T13:20:26;3.60;99.90
14779;DHT22;7481;53.750;10.570;2022-11-20T13:23:23;3.60;99.90
14779;DHT22;7481;53.750;10.570;2022-11-20T13:26:20;3.50;99.90
14779;DHT22;7481;53.750;10.570;2022-11-20T13:29:17;3.60;99.90
14779;DHT22;7481;53.750;10.570;2022-11-20T13:32:18;3.70;99.90
14779;DHT22;7481;53.750;10.570;2022-11-20T13:35:08;3.90;99.90
14779;DHT22;7481;53.750;10.570;2022-11-20T13:40:58;3.90;99.90
14779;DHT22;7481;53.750;10.570;2022-11-20T13:43:47;3.90;99.90
14779;DHT22;7481;53.750;10.570;2022-11-20T13:46:43;3.70;99.90
14779;DHT22;7481;53.750;10.570;2022-11-20T13:49:40;3.60;99.90
14779;DHT22;7481;53.750;10.570;2022-11-20T13:52:59;3.50;99.90
14779;DHT22;7481;53.750;10.570;2022-11-20T13:55:54;3.40;99.90
14779;DHT22;7481;53.750;10.570;2022-11-20T13:59:11;3.50;99.90
14779;DHT22;7481;53.750;10.570;2022-11-20T14:02:01;3.60;99.90
14779;DHT22;7481;53.750;10.570;2022-11-20T14:04:51;3.70;99.90
14779;DHT22;7481;53.750;10.570;2022-11-20T14:07:41;3.70;99.90
14779;DHT22;7481;53.750;10.570;2022-11-20T14:10:29;3.70;99.90
14779;DHT22;7481;53.750;10.570;2022-11-20T14:13:19;3.60;99.90
14779;DHT22;7481;53.750;10.570;2022-11-20T14:16:08;3.50;99.90
14779;DHT22;7481;53.750;10.570;2022-11-20T14:18:57;3.50;99.90
14779;DHT22;7481;53.750;10.570;2022-11-20T14:21:45;3.50;99.90
14779;DHT22;7481;53.750;10.570;2022-11-20T14:24:32;3.50;99.90
14779;DHT22;7481;53.750;10.570;2022-11-20T14:27:20;3.50;99.90
14779;DHT22;7481;53.750;10.570;2022-11-20T14:30:20;3.50;99.90
14779;DHT22;7481;53.750;10.570;2022-11-20T14:33:09;3.60;99.90
14779;DHT22;7481;53.750;10.570;2022-11-20T14:35:58;3.50;99.90
14779;DHT22;7481;53.750;10.570;2022-11-20T14:38:45;3.50;99.90
14779;DHT22;7481;53.750;10.570;2022-11-20T14:41:32;3.40;99.90
14779;DHT22;7481;53.750;10.570;2022-11-20T14:44:26;3.30;99.90
14779;DHT22;7481;53.750;10.570;2022-11-20T14:47:18;3.10;99.90
14779;DHT22;7481;53.750;10.570;2022-11-20T14:50:16;3.00;99.90
14779;DHT22;7481;53.750;10.570;2022-11-20T14:53:04;3.00;99.90
14779;DHT22;7481;53.750;10.570;2022-11-20T14:55:59;2.90;99.90
14779;DHT22;7481;53.750;10.570;2022-11-20T14:58:58;2.80;99.90
14779;DHT22;7481;53.750;10.570;2022-11-20T15:01:55;2.80;99.90
14779;DHT22;7481;53.750;10.570;2022-11-20T15:04:56;2.70;99.90
14779;DHT22;7481;53.750;10.570;2022-11-20T15:07:50;2.60;99.90
14779;DHT22;7481;53.750;10.570;2022-11-20T15:10:37;2.50;99.90
14779;DHT22;7481;53.750;10.570;2022-11-20T15:16:23;2.50;99.90
14779;DHT22;7481;53.750;10.570;2022-11-20T15:19:17;2.40;99.90
14779;DHT22;7481;53.750;10.570;2022-11-20T15:22:11;2.30;99.90
14779;DHT22;7481;53.750;10.570;2022-11-20T15:24:59;2.20;99.90
14779;DHT22;7481;53.750;10.570;2022-11-20T15:27:49;2.10;99.90
14779;DHT22;7481;53.750;10.570;2022-11-20T15:30:38;2.00;99.90
14779;DHT22;7481;53.750;10.570;2022-11-20T15:33:27;2.00;99.90
14779;DHT22;7481;53.750;10.570;2022-11-20T15:36:14;1.90;99.90
14779;DHT22;7481;53.750;10.570;2022-11-20T15:39:01;1.90;99.90
14779;DHT22;7481;53.750;10.570;2022-11-20T15:41:49;1.80;99.90
14779;DHT22;7481;53.750;10.570;2022-11-20T15:44:36;1.80;99.90
14779;DHT22;7481;53.750;10.570;2022-11-20T15:47:28;1.70;99.90
14779;DHT22;7481;53.750;10.570;2022-11-20T15:50:17;1.70;99.90
14779;DHT22;7481;53.750;10.570;2022-11-20T15:53:04;1.70;99.90
14779;DHT22;7481;53.750;10.570;2022-11-20T15:55:51;1.70;99.90
14779;DHT22;7481;53.750;10.570;2022-11-20T15:58:39;1.70;99.90
14779;DHT22;7481;53.750;10.570;2022-11-20T16:01:26;1.60;99.90
14779;DHT22;7481;53.750;10.570;2022-11-20T16:04:15;1.60;99.90
14779;DHT22;7481;53.750;10.570;2022-11-20T16:07:02;1.60;99.90
14779;DHT22;7481;53.750;10.570;2022-11-20T16:09:49;1.50;99.90
14779;DHT22;7481;53.750;10.570;2022-11-20T16:12:36;1.50;99.90
14779;DHT22;7481;53.750;10.570;2022-11-20T16:15:51;1.50;99.90
14779;DHT22;7481;53.750;10.570;2022-11-20T16:18:39;1.50;99.90
14779;DHT22;7481;53.750;10.570;2022-11-20T16:21:26;1.50;99.90
14779;DHT22;7481;53.750;10.570;2022-11-20T16:24:19;1.50;99.90
14779;DHT22;7481;53.750;10.570;2022-11-20T16:27:06;1.50;99.90
14779;DHT22;7481;53.750;10.570;2022-11-20T16:29:53;1.60;99.90
14779;DHT22;7481;53.750;10.570;2022-11-20T16:32:40;1.70;99.90
14779;DHT22;7481;53.750;10.570;2022-11-20T16:35:28;1.70;99.90
14779;DHT22;7481;53.750;10.570;2022-11-20T16:38:15;1.70;99.90
14779;DHT22;7481;53.750;10.570;2022-11-20T16:41:03;1.90;99.90
14779;DHT22;7481;53.750;10.570;2022-11-20T16:43:52;1.90;99.90
14779;DHT22;7481;53.750;10.570;2022-11-20T16:46:40;2.00;99.90
14779;DHT22;7481;53.750;10.570;2022-11-20T16:49:27;2.00;99.90
14779;DHT22;7481;53.750;10.570;2022-11-20T16:52:14;2.10;99.90
14779;DHT22;7481;53.750;10.570;2022-11-20T16:55:01;2.10;99.90
14779;DHT22;7481;53.750;10.570;2022-11-20T16:57:48;2.10;99.90
14779;DHT22;7481;53.750;10.570;2022-11-20T17:00:36;2.20;99.90
14779;DHT22;7481;53.750;10.570;2022-11-20T17:03:23;2.20;99.90
14779;DHT22;7481;53.750;10.570;2022-11-20T17:06:15;2.20;99.90
14779;DHT22;7481;53.750;10.570;2022-11-20T17:09:03;2.30;99.90
14779;DHT22;7481;53.750;10.570;2022-11-20T17:11:50;2.30;99.90
14779;DHT22;7481;53.750;10.570;2022-11-20T17:14:37;2.30;99.90
14779;DHT22;7481;53.750;10.570;2022-11-20T17:17:24;2.30;99.90
14779;DHT22;7481;53.750;10.570;2022-11-20T17:20:11;2.30;99.90
14779;DHT22;7481;53.750;10.570;2022-11-20T17:22:58;2.30;99.90
14779;DHT22;7481;53.750;10.570;2022-11-20T17:25:45;3.40;99.90
14779;DHT22;7481;53.750;10.570;2022-11-20T17:28:33;2.30;99.90
14779;DHT22;7481;53.750;10.570;2022-11-20T17:31:20;2.30;99.90
14779;DHT22;7481;53.750;10.570;2022-11-20T17:34:09;2.30;99.90
14779;DHT22;7481;53.750;10.570;2022-11-20T17:36:57;2.30;99.90
14779;DHT22;7481;53.750;10.570;2022-11-20T17:39:44;2.30;99.90
14779;DHT22;7481;53.750;10.570;2022-11-20T17:42:31;2.40;99.90
14779;DHT22;7481;53.750;10.570;2022-11-20T17:45:22;2.40;99.90
14779;DHT22;7481;53.750;10.570;2022-11-20T17:48:10;2.50;99.90
14779;DHT22;7481;53.750;10.570;2022-11-20T17:51:02;2.50;99.90
14779;DHT22;7481;53.750;10.570;2022-11-20T17:53:51;2.50;99.90
14779;DHT22;7481;53.750;10.570;2022-11-20T17:56:39;2.40;99.90
14779;DHT22;7481;53.750;10.570;2022-11-20T17:59:44;2.50;99.90
14779;DHT22;7481;53.750;10.570;2022-11-20T18:02:31;2.40;99.90
14779;DHT22;7481;53.750;10.570;2022-11-20T18:05:18;2.40;99.90
14779;DHT22;7481;53.750;10.570;2022-11-20T18:08:05;2.40;99.90
14779;DHT22;7481;53.750;10.570;2022-11-20T18:10:52;2.40;99.90
14779;DHT22;7481;53.750;10.570;2022-11-20T18:13:39;2.30;99.90
14779;DHT22;7481;53.750;10.570;2022-11-20T18:16:50;2.30;99.90
14779;DHT22;7481;53.750;10.570;2022-11-20T18:19:39;2.40;99.90
14779;DHT22;7481;53.750;10.570;2022-11-20T18:22:47;2.40;99.90
14779;DHT22;7481;53.750;10.570;2022-11-20T18:25:34;2.40;99.90
14779;DHT22;7481;53.750;10.570;2022-11-20T18:28:20;2.40;99.90
14779;DHT22;7481;53.750;10.570;2022-11-20T18:31:10;2.50;99.90
14779;DHT22;7481;53.750;10.570;2022-11-20T18:33:57;2.40;99.90
14779;DHT22;7481;53.750;10.570;2022-11-20T18:36:44;2.40;99.90
14779;DHT22;7481;53.750;10.570;2022-11-20T18:39:31;2.50;99.90
14779;DHT22;7481;53.750;10.570;2022-11-20T18:42:18;2.50;99.90
14779;DHT22;7481;53.750;10.570;2022-11-20T18:45:24;2.50;99.90
14779;DHT22;7481;53.750;10.570;2022-11-20T18:48:11;2.50;99.90
14779;DHT22;7481;53.750;10.570;2022-11-20T18:51:07;2.50;99.90
14779;DHT22;7481;53.750;10.570;2022-11-20T18:53:57;2.50;99.90
14779;DHT22;7481;53.750;10.570;2022-11-20T18:56:44;2.60;99.90
14779;DHT22;7481;53.750;10.570;2022-11-20T18:59:31;2.50;99.90
14779;DHT22;7481;53.750;10.570;2022-11-20T19:02:19;2.40;99.90
14779;DHT22;7481;53.750;10.570;2022-11-20T19:05:06;2.40;99.90
14779;DHT22;7481;53.750;10.570;2022-11-20T19:07:53;2.40;99.90
14779;DHT22;7481;53.750;10.570;2022-11-20T19:10:40;2.40;99.90
14779;DHT22;7481;53.750;10.570;2022-11-20T19:13:27;2.20;99.90
14779;DHT22;7481;53.750;10.570;2022-11-20T19:16:18;2.10;99.90